sensor_id;sensor_type;location;lat;lon;timestamp;P1;durP1;ratioP1;P2;durP2;ratioP2
69789;SDS011;57064;52.046;4.800;2023-03-30T00:01:54;7.10;;;2.45;;
69789;SDS011;57064;52.046;4.800;2023-03-30T00:04:20;5.30;;;1.95;;
69789;SDS011;57064;52.046;4.800;2023-03-30T00:06:47;3.72;;;1.75;;
69789;SDS011;57064;52.046;4.800;2023-03-30T00:09:14;6.40;;;2.13;;
69789;SDS011;57064;52.046;4.800;2023-03-30T00:11:40;7.25;;;2.15;;
69789;SDS011;57064;52.046;4.800;2023-03-30T00:14:07;6.15;;;2.20;;
69789;SDS011;57064;52.046;4.800;2023-03-30T00:16:33;5.53;;;1.70;;
69789;SDS011;57064;52.046;4.800;2023-03-30T00:18:59;4.95;;;1.85;;
69789;SDS011;57064;52.046;4.800;2023-03-30T00:21:25;5.65;;;2.00;;
69789;SDS011;57064;52.046;4.800;2023-03-30T00:23:52;5.03;;;2.10;;
69789;SDS011;57064;52.046;4.800;2023-03-30T00:26:18;6.63;;;2.55;;
69789;SDS011;57064;52.046;4.800;2023-03-30T00:28:44;6.07;;;2.15;;
69789;SDS011;57064;52.046;4.800;2023-03-30T00:31:10;4.22;;;2.25;;
69789;SDS011;57064;52.046;4.800;2023-03-30T00:33:36;2.70;;;1.70;;
69789;SDS011;57064;52.046;4.800;2023-03-30T00:36:03;6.05;;;2.85;;
69789;SDS011;57064;52.046;4.800;2023-03-30T00:38:29;6.95;;;2.35;;
69789;SDS011;57064;52.046;4.800;2023-03-30T00:40:56;5.50;;;2.20;;
69789;SDS011;57064;52.046;4.800;2023-03-30T00:43:24;6.03;;;2.55;;
69789;SDS011;57064;52.046;4.800;2023-03-30T00:45:50;5.20;;;2.00;;
69789;SDS011;57064;52.046;4.800;2023-03-30T00:48:21;4.03;;;2.70;;
69789;SDS011;57064;52.046;4.800;2023-03-30T00:50:53;4.85;;;2.53;;
69789;SDS011;57064;52.046;4.800;2023-03-30T00:56:03;6.90;;;2.10;;
69789;SDS011;57064;52.046;4.800;2023-03-30T00:58:32;6.30;;;2.47;;
69789;SDS011;57064;52.046;4.800;2023-03-30T01:01:02;5.88;;;2.35;;
69789;SDS011;57064;52.046;4.800;2023-03-30T01:03:31;6.13;;;2.67;;
69789;SDS011;57064;52.046;4.800;2023-03-30T01:08:30;4.97;;;2.50;;
69789;SDS011;57064;52.046;4.800;2023-03-30T01:10:57;6.65;;;2.20;;
69789;SDS011;57064;52.046;4.800;2023-03-30T01:13:26;4.28;;;1.98;;
69789;SDS011;57064;52.046;4.800;2023-03-30T01:15:55;7.63;;;2.20;;
69789;SDS011;57064;52.046;4.800;2023-03-30T01:18:46;7.13;;;2.35;;
69789;SDS011;57064;52.046;4.800;2023-03-30T01:29:56;8.10;;;2.10;;
69789;SDS011;57064;52.046;4.800;2023-03-30T01:41:25;5.97;;;2.28;;
69789;SDS011;57064;52.046;4.800;2023-03-30T01:44:03;6.50;;;2.40;;
69789;SDS011;57064;52.046;4.800;2023-03-30T01:46:52;5.88;;;2.30;;
69789;SDS011;57064;52.046;4.800;2023-03-30T01:50:00;7.10;;;2.20;;
69789;SDS011;57064;52.046;4.800;2023-03-30T01:55:43;8.18;;;3.15;;
69789;SDS011;57064;52.046;4.800;2023-03-30T02:00:47;7.07;;;2.63;;
69789;SDS011;57064;52.046;4.800;2023-03-30T02:03:16;6.80;;;3.00;;
69789;SDS011;57064;52.046;4.800;2023-03-30T02:05:52;8.05;;;2.70;;
69789;SDS011;57064;52.046;4.800;2023-03-30T02:08:22;7.22;;;2.50;;
69789;SDS011;57064;52.046;4.800;2023-03-30T02:10:51;6.65;;;2.42;;
69789;SDS011;57064;52.046;4.800;2023-03-30T02:13:18;8.40;;;2.80;;
69789;SDS011;57064;52.046;4.800;2023-03-30T02:15:47;4.88;;;2.47;;
69789;SDS011;57064;52.046;4.800;2023-03-30T02:18:21;7.65;;;2.65;;
69789;SDS011;57064;52.046;4.800;2023-03-30T02:20:47;5.78;;;2.33;;
69789;SDS011;57064;52.046;4.800;2023-03-30T02:23:14;7.65;;;2.83;;
69789;SDS011;57064;52.046;4.800;2023-03-30T02:25:44;7.07;;;2.60;;
69789;SDS011;57064;52.046;4.800;2023-03-30T02:28:10;5.43;;;2.53;;
69789;SDS011;57064;52.046;4.800;2023-03-30T02:30:41;3.90;;;2.00;;
69789;SDS011;57064;52.046;4.800;2023-03-30T02:44:57;8.82;;;2.60;;
69789;SDS011;57064;52.046;4.800;2023-03-30T02:47:31;4.28;;;2.30;;
69789;SDS011;57064;52.046;4.800;2023-03-30T02:55:48;8.73;;;2.58;;
69789;SDS011;57064;52.046;4.800;2023-03-30T03:00:57;6.93;;;2.00;;
69789;SDS011;57064;52.046;4.800;2023-03-30T03:03:35;6.13;;;2.13;;
69789;SDS011;57064;52.046;4.800;2023-03-30T03:06:05;4.55;;;2.22;;
69789;SDS011;57064;52.046;4.800;2023-03-30T03:08:37;4.90;;;2.42;;
69789;SDS011;57064;52.046;4.800;2023-03-30T03:11:05;7.63;;;2.78;;
69789;SDS011;57064;52.046;4.800;2023-03-30T03:13:32;6.30;;;2.60;;
69789;SDS011;57064;52.046;4.800;2023-03-30T03:16:01;6.55;;;2.20;;
69789;SDS011;57064;52.046;4.800;2023-03-30T03:18:31;6.95;;;1.90;;
69789;SDS011;57064;52.046;4.800;2023-03-30T03:20:59;6.35;;;1.90;;
69789;SDS011;57064;52.046;4.800;2023-03-30T03:23:25;5.60;;;1.75;;
69789;SDS011;57064;52.046;4.800;2023-03-30T03:25:51;4.60;;;1.83;;
69789;SDS011;57064;52.046;4.800;2023-03-30T03:28:17;6.28;;;2.03;;
69789;SDS011;57064;52.046;4.800;2023-03-30T03:30:43;5.50;;;1.83;;
69789;SDS011;57064;52.046;4.800;2023-03-30T03:33:09;5.78;;;1.98;;
69789;SDS011;57064;52.046;4.800;2023-03-30T03:35:36;3.55;;;1.55;;
69789;SDS011;57064;52.046;4.800;2023-03-30T03:38:05;5.55;;;1.60;;
69789;SDS011;57064;52.046;4.800;2023-03-30T03:40:31;4.85;;;1.55;;
69789;SDS011;57064;52.046;4.800;2023-03-30T03:42:58;4.57;;;1.42;;
69789;SDS011;57064;52.046;4.800;2023-03-30T03:45:24;5.47;;;1.45;;
69789;SDS011;57064;52.046;4.800;2023-03-30T03:47:50;2.97;;;1.52;;
69789;SDS011;57064;52.046;4.800;2023-03-30T03:50:16;6.38;;;2.13;;
69789;SDS011;57064;52.046;4.800;2023-03-30T03:52:43;12.23;;;2.88;;
69789;SDS011;57064;52.046;4.800;2023-03-30T03:55:09;6.35;;;2.05;;
69789;SDS011;57064;52.046;4.800;2023-03-30T03:57:35;4.10;;;1.55;;
69789;SDS011;57064;52.046;4.800;2023-03-30T04:00:02;4.72;;;1.40;;
69789;SDS011;57064;52.046;4.800;2023-03-30T04:02:29;5.40;;;1.75;;
69789;SDS011;57064;52.046;4.800;2023-03-30T04:04:55;7.57;;;1.98;;
69789;SDS011;57064;52.046;4.800;2023-03-30T04:07:21;8.50;;;1.95;;
69789;SDS011;57064;52.046;4.800;2023-03-30T04:09:49;8.00;;;1.58;;
69789;SDS011;57064;52.046;4.800;2023-03-30T04:12:15;4.05;;;1.23;;
69789;SDS011;57064;52.046;4.800;2023-03-30T04:14:41;11.07;;;2.40;;
69789;SDS011;57064;52.046;4.800;2023-03-30T04:17:07;8.15;;;1.63;;
69789;SDS011;57064;52.046;4.800;2023-03-30T04:19:33;12.77;;;1.88;;
69789;SDS011;57064;52.046;4.800;2023-03-30T04:22:00;10.10;;;1.55;;
69789;SDS011;57064;52.046;4.800;2023-03-30T04:24:26;10.00;;;2.30;;
69789;SDS011;57064;52.046;4.800;2023-03-30T04:26:53;7.10;;;1.80;;
69789;SDS011;57064;52.046;4.800;2023-03-30T04:29:21;9.30;;;1.75;;
69789;SDS011;57064;52.046;4.800;2023-03-30T04:31:48;10.35;;;1.77;;
69789;SDS011;57064;52.046;4.800;2023-03-30T04:34:15;10.80;;;2.65;;
69789;SDS011;57064;52.046;4.800;2023-03-30T04:36:46;9.15;;;2.40;;
69789;SDS011;57064;52.046;4.800;2023-03-30T04:39:12;11.27;;;2.75;;
69789;SDS011;57064;52.046;4.800;2023-03-30T04:41:42;15.77;;;2.30;;
69789;SDS011;57064;52.046;4.800;2023-03-30T04:44:10;8.60;;;2.40;;
69789;SDS011;57064;52.046;4.800;2023-03-30T04:46:36;10.68;;;2.30;;
69789;SDS011;57064;52.046;4.800;2023-03-30T04:49:02;16.05;;;2.75;;
69789;SDS011;57064;52.046;4.800;2023-03-30T04:51:28;17.15;;;3.97;;
69789;SDS011;57064;52.046;4.800;2023-03-30T04:53:55;7.95;;;2.00;;
69789;SDS011;57064;52.046;4.800;2023-03-30T04:56:21;16.70;;;3.78;;
69789;SDS011;57064;52.046;4.800;2023-03-30T04:58:47;11.73;;;2.50;;
69789;SDS011;57064;52.046;4.800;2023-03-30T05:01:13;10.95;;;3.00;;
69789;SDS011;57064;52.046;4.800;2023-03-30T05:03:39;14.68;;;2.65;;
69789;SDS011;57064;52.046;4.800;2023-03-30T05:06:05;9.18;;;2.40;;
69789;SDS011;57064;52.046;4.800;2023-03-30T05:08:32;11.15;;;2.58;;
69789;SDS011;57064;52.046;4.800;2023-03-30T05:10:59;16.95;;;2.65;;
69789;SDS011;57064;52.046;4.800;2023-03-30T05:13:28;12.25;;;2.38;;
69789;SDS011;57064;52.046;4.800;2023-03-30T05:15:55;12.07;;;3.03;;
69789;SDS011;57064;52.046;4.800;2023-03-30T05:18:22;11.68;;;2.80;;
69789;SDS011;57064;52.046;4.800;2023-03-30T05:20:48;16.50;;;3.70;;
69789;SDS011;57064;52.046;4.800;2023-03-30T05:23:14;18.65;;;3.33;;
69789;SDS011;57064;52.046;4.800;2023-03-30T05:25:41;17.17;;;2.60;;
69789;SDS011;57064;52.046;4.800;2023-03-30T05:28:12;14.25;;;3.00;;
69789;SDS011;57064;52.046;4.800;2023-03-30T05:30:41;17.42;;;3.03;;
69789;SDS011;57064;52.046;4.800;2023-03-30T05:33:10;24.38;;;2.65;;
69789;SDS011;57064;52.046;4.800;2023-03-30T05:35:37;15.30;;;2.63;;
69789;SDS011;57064;52.046;4.800;2023-03-30T05:38:03;13.00;;;2.70;;
69789;SDS011;57064;52.046;4.800;2023-03-30T05:40:31;9.43;;;1.92;;
69789;SDS011;57064;52.046;4.800;2023-03-30T05:42:57;30.13;;;3.67;;
69789;SDS011;57064;52.046;4.800;2023-03-30T05:45:23;17.95;;;2.95;;
69789;SDS011;57064;52.046;4.800;2023-03-30T05:47:51;22.92;;;3.88;;
69789;SDS011;57064;52.046;4.800;2023-03-30T05:50:18;13.25;;;3.53;;
69789;SDS011;57064;52.046;4.800;2023-03-30T05:52:44;27.65;;;4.18;;
69789;SDS011;57064;52.046;4.800;2023-03-30T05:55:10;24.92;;;4.47;;
69789;SDS011;57064;52.046;4.800;2023-03-30T05:57:37;18.65;;;3.67;;
69789;SDS011;57064;52.046;4.800;2023-03-30T06:00:04;22.50;;;3.30;;
69789;SDS011;57064;52.046;4.800;2023-03-30T06:02:31;24.65;;;3.65;;
69789;SDS011;57064;52.046;4.800;2023-03-30T06:04:57;15.90;;;3.15;;
69789;SDS011;57064;52.046;4.800;2023-03-30T06:07:25;16.73;;;3.83;;
69789;SDS011;57064;52.046;4.800;2023-03-30T06:09:52;24.60;;;3.60;;
69789;SDS011;57064;52.046;4.800;2023-03-30T06:12:18;14.50;;;2.85;;
69789;SDS011;57064;52.046;4.800;2023-03-30T06:14:44;23.63;;;3.70;;
69789;SDS011;57064;52.046;4.800;2023-03-30T06:17:10;10.60;;;2.50;;
69789;SDS011;57064;52.046;4.800;2023-03-30T06:19:38;13.68;;;2.92;;
69789;SDS011;57064;52.046;4.800;2023-03-30T06:22:04;13.45;;;3.03;;
69789;SDS011;57064;52.046;4.800;2023-03-30T06:24:30;22.25;;;3.53;;
69789;SDS011;57064;52.046;4.800;2023-03-30T06:26:56;11.75;;;2.22;;
69789;SDS011;57064;52.046;4.800;2023-03-30T06:29:23;13.70;;;3.22;;
69789;SDS011;57064;52.046;4.800;2023-03-30T06:31:49;18.77;;;3.35;;
69789;SDS011;57064;52.046;4.800;2023-03-30T06:34:15;17.02;;;3.78;;
69789;SDS011;57064;52.046;4.800;2023-03-30T06:36:41;15.38;;;2.92;;
69789;SDS011;57064;52.046;4.800;2023-03-30T06:39:08;14.18;;;3.38;;
69789;SDS011;57064;52.046;4.800;2023-03-30T06:41:34;17.05;;;2.40;;
69789;SDS011;57064;52.046;4.800;2023-03-30T06:44:00;23.65;;;4.20;;
69789;SDS011;57064;52.046;4.800;2023-03-30T06:46:26;17.90;;;3.03;;
69789;SDS011;57064;52.046;4.800;2023-03-30T06:48:52;22.35;;;4.10;;
69789;SDS011;57064;52.046;4.800;2023-03-30T06:51:18;22.40;;;3.45;;
69789;SDS011;57064;52.046;4.800;2023-03-30T06:53:45;14.70;;;2.40;;
69789;SDS011;57064;52.046;4.800;2023-03-30T06:56:11;17.58;;;2.47;;
69789;SDS011;57064;52.046;4.800;2023-03-30T06:58:37;23.73;;;2.90;;
69789;SDS011;57064;52.046;4.800;2023-03-30T07:01:13;13.90;;;2.22;;
69789;SDS011;57064;52.046;4.800;2023-03-30T07:03:40;26.38;;;3.67;;
69789;SDS011;57064;52.046;4.800;2023-03-30T07:06:06;19.08;;;4.45;;
69789;SDS011;57064;52.046;4.800;2023-03-30T07:08:33;20.40;;;2.63;;
69789;SDS011;57064;52.046;4.800;2023-03-30T07:11:01;18.05;;;3.42;;
69789;SDS011;57064;52.046;4.800;2023-03-30T07:13:28;15.43;;;3.05;;
69789;SDS011;57064;52.046;4.800;2023-03-30T07:15:54;13.10;;;2.88;;
69789;SDS011;57064;52.046;4.800;2023-03-30T07:18:21;19.00;;;3.40;;
69789;SDS011;57064;52.046;4.800;2023-03-30T07:20:47;20.15;;;3.22;;
69789;SDS011;57064;52.046;4.800;2023-03-30T07:23:13;13.75;;;3.35;;
69789;SDS011;57064;52.046;4.800;2023-03-30T07:25:40;16.83;;;3.15;;
69789;SDS011;57064;52.046;4.800;2023-03-30T07:28:07;18.00;;;2.88;;
69789;SDS011;57064;52.046;4.800;2023-03-30T07:30:34;17.80;;;4.13;;
69789;SDS011;57064;52.046;4.800;2023-03-30T07:33:00;19.92;;;3.53;;
69789;SDS011;57064;52.046;4.800;2023-03-30T07:35:26;15.68;;;2.63;;
69789;SDS011;57064;52.046;4.800;2023-03-30T07:37:53;17.65;;;4.13;;
69789;SDS011;57064;52.046;4.800;2023-03-30T07:40:19;21.83;;;3.78;;
69789;SDS011;57064;52.046;4.800;2023-03-30T07:42:45;27.17;;;5.57;;
69789;SDS011;57064;52.046;4.800;2023-03-30T07:45:12;17.63;;;3.72;;
69789;SDS011;57064;52.046;4.800;2023-03-30T07:47:38;23.42;;;4.32;;
69789;SDS011;57064;52.046;4.800;2023-03-30T07:50:04;17.73;;;3.90;;
69789;SDS011;57064;52.046;4.800;2023-03-30T07:52:31;12.00;;;2.78;;
69789;SDS011;57064;52.046;4.800;2023-03-30T07:54:57;13.63;;;3.45;;
69789;SDS011;57064;52.046;4.800;2023-03-30T07:57:23;23.02;;;4.15;;
69789;SDS011;57064;52.046;4.800;2023-03-30T07:59:50;16.38;;;3.30;;
69789;SDS011;57064;52.046;4.800;2023-03-30T08:02:16;23.30;;;3.72;;
69789;SDS011;57064;52.046;4.800;2023-03-30T08:04:42;19.65;;;3.72;;
69789;SDS011;57064;52.046;4.800;2023-03-30T08:07:09;27.17;;;4.38;;
69789;SDS011;57064;52.046;4.800;2023-03-30T08:09:35;22.48;;;4.30;;
69789;SDS011;57064;52.046;4.800;2023-03-30T08:12:02;19.13;;;3.35;;
69789;SDS011;57064;52.046;4.800;2023-03-30T08:14:28;24.67;;;4.28;;
69789;SDS011;57064;52.046;4.800;2023-03-30T08:16:54;22.77;;;3.97;;
69789;SDS011;57064;52.046;4.800;2023-03-30T08:19:21;18.05;;;4.82;;
69789;SDS011;57064;52.046;4.800;2023-03-30T08:21:48;23.42;;;3.83;;
69789;SDS011;57064;52.046;4.800;2023-03-30T08:24:15;18.08;;;3.53;;
69789;SDS011;57064;52.046;4.800;2023-03-30T08:26:41;24.60;;;4.68;;
69789;SDS011;57064;52.046;4.800;2023-03-30T08:29:08;14.15;;;2.63;;
69789;SDS011;57064;52.046;4.800;2023-03-30T08:31:35;16.83;;;3.03;;
69789;SDS011;57064;52.046;4.800;2023-03-30T08:34:01;21.48;;;3.90;;
69789;SDS011;57064;52.046;4.800;2023-03-30T08:36:28;20.27;;;3.30;;
69789;SDS011;57064;52.046;4.800;2023-03-30T08:38:55;15.68;;;3.60;;
69789;SDS011;57064;52.046;4.800;2023-03-30T08:46:22;19.48;;;3.22;;
69789;SDS011;57064;52.046;4.800;2023-03-30T08:48:48;24.02;;;3.92;;
69789;SDS011;57064;52.046;4.800;2023-03-30T08:51:21;17.23;;;2.90;;
69789;SDS011;57064;52.046;4.800;2023-03-30T08:53:54;24.80;;;4.25;;
69789;SDS011;57064;52.046;4.800;2023-03-30T08:56:33;20.08;;;2.42;;
69789;SDS011;57064;52.046;4.800;2023-03-30T08:59:11;15.93;;;3.70;;
69789;SDS011;57064;52.046;4.800;2023-03-30T09:07:26;27.42;;;4.38;;
69789;SDS011;57064;52.046;4.800;2023-03-30T09:09:57;26.73;;;4.40;;
69789;SDS011;57064;52.046;4.800;2023-03-30T09:15:16;19.17;;;3.63;;
69789;SDS011;57064;52.046;4.800;2023-03-30T09:17:49;19.75;;;3.25;;
69789;SDS011;57064;52.046;4.800;2023-03-30T09:20:35;10.75;;;2.25;;
69789;SDS011;57064;52.046;4.800;2023-03-30T09:23:04;28.02;;;3.80;;
69789;SDS011;57064;52.046;4.800;2023-03-30T09:28:11;18.70;;;4.82;;
69789;SDS011;57064;52.046;4.800;2023-03-30T09:31:07;24.98;;;3.75;;
69789;SDS011;57064;52.046;4.800;2023-03-30T09:33:48;18.67;;;4.18;;
69789;SDS011;57064;52.046;4.800;2023-03-30T09:36:37;15.75;;;3.53;;
69789;SDS011;57064;52.046;4.800;2023-03-30T09:39:10;21.77;;;3.65;;
69789;SDS011;57064;52.046;4.800;2023-03-30T09:44:57;22.73;;;4.00;;
69789;SDS011;57064;52.046;4.800;2023-03-30T09:47:24;21.75;;;3.65;;
69789;SDS011;57064;52.046;4.800;2023-03-30T09:49:58;20.08;;;3.15;;
69789;SDS011;57064;52.046;4.800;2023-03-30T09:52:27;24.63;;;3.65;;
69789;SDS011;57064;52.046;4.800;2023-03-30T09:54:54;26.42;;;3.90;;
69789;SDS011;57064;52.046;4.800;2023-03-30T09:57:26;26.40;;;4.78;;
69789;SDS011;57064;52.046;4.800;2023-03-30T09:59:54;29.65;;;4.68;;
69789;SDS011;57064;52.046;4.800;2023-03-30T10:02:22;19.45;;;4.30;;
69789;SDS011;57064;52.046;4.800;2023-03-30T10:07:34;27.25;;;3.88;;
69789;SDS011;57064;52.046;4.800;2023-03-30T10:10:12;33.67;;;3.50;;
69789;SDS011;57064;52.046;4.800;2023-03-30T10:13:07;20.65;;;4.13;;
69789;SDS011;57064;52.046;4.800;2023-03-30T10:15:39;18.55;;;3.25;;
69789;SDS011;57064;52.046;4.800;2023-03-30T10:18:26;19.33;;;3.33;;
69789;SDS011;57064;52.046;4.800;2023-03-30T10:21:01;16.67;;;3.22;;
69789;SDS011;57064;52.046;4.800;2023-03-30T10:23:39;22.17;;;3.63;;
69789;SDS011;57064;52.046;4.800;2023-03-30T10:26:12;16.17;;;3.55;;
69789;SDS011;57064;52.046;4.800;2023-03-30T10:29:05;18.50;;;3.15;;
69789;SDS011;57064;52.046;4.800;2023-03-30T10:31:35;23.40;;;3.97;;
69789;SDS011;57064;52.046;4.800;2023-03-30T10:34:04;18.35;;;2.75;;
69789;SDS011;57064;52.046;4.800;2023-03-30T10:36:38;16.73;;;3.00;;
69789;SDS011;57064;52.046;4.800;2023-03-30T10:39:06;14.27;;;2.38;;
69789;SDS011;57064;52.046;4.800;2023-03-30T10:41:38;15.55;;;3.05;;
69789;SDS011;57064;52.046;4.800;2023-03-30T10:44:25;17.23;;;3.13;;
69789;SDS011;57064;52.046;4.800;2023-03-30T11:03:37;15.18;;;3.90;;
69789;SDS011;57064;52.046;4.800;2023-03-30T11:06:14;23.67;;;3.85;;
69789;SDS011;57064;52.046;4.800;2023-03-30T11:09:03;20.98;;;3.25;;
69789;SDS011;57064;52.046;4.800;2023-03-30T11:11:33;20.52;;;3.08;;
69789;SDS011;57064;52.046;4.800;2023-03-30T11:14:14;14.57;;;2.38;;
69789;SDS011;57064;52.046;4.800;2023-03-30T11:16:56;12.90;;;3.42;;
69789;SDS011;57064;52.046;4.800;2023-03-30T11:19:41;23.23;;;3.53;;
69789;SDS011;57064;52.046;4.800;2023-03-30T11:25:06;17.77;;;3.30;;
69789;SDS011;57064;52.046;4.800;2023-03-30T11:27:47;13.65;;;3.03;;
69789;SDS011;57064;52.046;4.800;2023-03-30T11:30:36;26.05;;;3.92;;
69789;SDS011;57064;52.046;4.800;2023-03-30T11:35:57;21.00;;;3.83;;
69789;SDS011;57064;52.046;4.800;2023-03-30T11:41:00;23.00;;;3.72;;
69789;SDS011;57064;52.046;4.800;2023-03-30T11:43:35;14.73;;;3.28;;
69789;SDS011;57064;52.046;4.800;2023-03-30T11:46:03;19.48;;;2.90;;
69789;SDS011;57064;52.046;4.800;2023-03-30T11:54:41;17.88;;;3.78;;
69789;SDS011;57064;52.046;4.800;2023-03-30T12:05:30;21.50;;;4.47;;
69789;SDS011;57064;52.046;4.800;2023-03-30T12:08:22;16.15;;;2.65;;
69789;SDS011;57064;52.046;4.800;2023-03-30T12:13:44;19.10;;;4.07;;
69789;SDS011;57064;52.046;4.800;2023-03-30T12:16:12;22.30;;;3.92;;
69789;SDS011;57064;52.046;4.800;2023-03-30T12:18:54;24.77;;;3.53;;
69789;SDS011;57064;52.046;4.800;2023-03-30T12:21:38;24.48;;;4.05;;
69789;SDS011;57064;52.046;4.800;2023-03-30T12:26:53;24.60;;;4.53;;
69789;SDS011;57064;52.046;4.800;2023-03-30T12:29:20;21.17;;;3.88;;
69789;SDS011;57064;52.046;4.800;2023-03-30T12:34:27;25.67;;;4.25;;
69789;SDS011;57064;52.046;4.800;2023-03-30T12:42:39;18.77;;;3.05;;
69789;SDS011;57064;52.046;4.800;2023-03-30T12:56:37;26.05;;;4.65;;
69789;SDS011;57064;52.046;4.800;2023-03-30T13:04:58;19.88;;;4.10;;
69789;SDS011;57064;52.046;4.800;2023-03-30T13:07:28;21.40;;;3.50;;
69789;SDS011;57064;52.046;4.800;2023-03-30T13:09:59;15.25;;;3.10;;
69789;SDS011;57064;52.046;4.800;2023-03-30T13:12:40;24.05;;;4.57;;
69789;SDS011;57064;52.046;4.800;2023-03-30T13:20:20;25.85;;;3.95;;
69789;SDS011;57064;52.046;4.800;2023-03-30T13:25:42;33.67;;;4.68;;
69789;SDS011;57064;52.046;4.800;2023-03-30T13:28:34;19.95;;;2.60;;
69789;SDS011;57064;52.046;4.800;2023-03-30T13:33:48;26.42;;;4.20;;
69789;SDS011;57064;52.046;4.800;2023-03-30T13:51:13;20.77;;;4.00;;
69789;SDS011;57064;52.046;4.800;2023-03-30T13:53:48;20.20;;;3.28;;
69789;SDS011;57064;52.046;4.800;2023-03-30T13:56:21;22.40;;;3.40;;
69789;SDS011;57064;52.046;4.800;2023-03-30T13:59:06;21.85;;;3.78;;
69789;SDS011;57064;52.046;4.800;2023-03-30T14:01:37;17.42;;;2.70;;
69789;SDS011;57064;52.046;4.800;2023-03-30T14:04:04;11.63;;;2.90;;
69789;SDS011;57064;52.046;4.800;2023-03-30T14:06:36;26.40;;;3.88;;
69789;SDS011;57064;52.046;4.800;2023-03-30T14:11:38;16.58;;;2.95;;
69789;SDS011;57064;52.046;4.800;2023-03-30T14:14:16;14.75;;;2.88;;
69789;SDS011;57064;52.046;4.800;2023-03-30T14:16:44;14.60;;;2.85;;
69789;SDS011;57064;52.046;4.800;2023-03-30T14:19:14;20.13;;;3.28;;
69789;SDS011;57064;52.046;4.800;2023-03-30T14:21:53;17.90;;;2.00;;
69789;SDS011;57064;52.046;4.800;2023-03-30T14:24:40;14.93;;;2.25;;
69789;SDS011;57064;52.046;4.800;2023-03-30T14:27:21;17.13;;;2.97;;
69789;SDS011;57064;52.046;4.800;2023-03-30T14:29:50;20.63;;;3.50;;
69789;SDS011;57064;52.046;4.800;2023-03-30T14:32:18;13.77;;;3.85;;
69789;SDS011;57064;52.046;4.800;2023-03-30T14:34:47;16.83;;;3.10;;
69789;SDS011;57064;52.046;4.800;2023-03-30T14:37:15;18.55;;;3.08;;
69789;SDS011;57064;52.046;4.800;2023-03-30T14:39:54;14.23;;;3.25;;
69789;SDS011;57064;52.046;4.800;2023-03-30T14:42:24;16.13;;;3.53;;
69789;SDS011;57064;52.046;4.800;2023-03-30T14:44:55;15.77;;;2.83;;
69789;SDS011;57064;52.046;4.800;2023-03-30T14:47:25;15.18;;;2.42;;
69789;SDS011;57064;52.046;4.800;2023-03-30T14:49:52;18.00;;;3.65;;
69789;SDS011;57064;52.046;4.800;2023-03-30T14:52:24;15.93;;;3.27;;
69789;SDS011;57064;52.046;4.800;2023-03-30T14:54:55;20.42;;;2.95;;
69789;SDS011;57064;52.046;4.800;2023-03-30T14:57:22;12.65;;;2.05;;
69789;SDS011;57064;52.046;4.800;2023-03-30T14:59:51;16.15;;;3.25;;
69789;SDS011;57064;52.046;4.800;2023-03-30T15:02:23;21.60;;;2.92;;
69789;SDS011;57064;52.046;4.800;2023-03-30T15:04:53;18.35;;;3.42;;
69789;SDS011;57064;52.046;4.800;2023-03-30T15:07:21;23.00;;;3.03;;
69789;SDS011;57064;52.046;4.800;2023-03-30T15:09:56;14.82;;;2.97;;
69789;SDS011;57064;52.046;4.800;2023-03-30T15:12:24;10.70;;;2.58;;
69789;SDS011;57064;52.046;4.800;2023-03-30T15:14:56;20.65;;;3.22;;
69789;SDS011;57064;52.046;4.800;2023-03-30T15:17:25;22.98;;;3.92;;
69789;SDS011;57064;52.046;4.800;2023-03-30T15:19:53;20.83;;;2.85;;
69789;SDS011;57064;52.046;4.800;2023-03-30T15:22:32;10.75;;;2.25;;
69789;SDS011;57064;52.046;4.800;2023-03-30T15:25:10;12.48;;;2.30;;
69789;SDS011;57064;52.046;4.800;2023-03-30T15:27:39;11.50;;;2.00;;
69789;SDS011;57064;52.046;4.800;2023-03-30T15:30:13;12.10;;;2.17;;
69789;SDS011;57064;52.046;4.800;2023-03-30T15:32:56;12.90;;;2.72;;
69789;SDS011;57064;52.046;4.800;2023-03-30T15:35:25;11.63;;;1.67;;
69789;SDS011;57064;52.046;4.800;2023-03-30T15:37:56;10.77;;;1.98;;
69789;SDS011;57064;52.046;4.800;2023-03-30T15:40:34;15.90;;;2.15;;
69789;SDS011;57064;52.046;4.800;2023-03-30T15:43:21;10.20;;;1.85;;
69789;SDS011;57064;52.046;4.800;2023-03-30T15:48:27;6.60;;;1.27;;
69789;SDS011;57064;52.046;4.800;2023-03-30T15:51:08;11.00;;;2.33;;
69789;SDS011;57064;52.046;4.800;2023-03-30T15:56:16;12.30;;;2.75;;
69789;SDS011;57064;52.046;4.800;2023-03-30T15:58:47;9.20;;;2.65;;
69789;SDS011;57064;52.046;4.800;2023-03-30T16:01:14;17.85;;;2.10;;
69789;SDS011;57064;52.046;4.800;2023-03-30T16:03:52;7.05;;;1.67;;
69789;SDS011;57064;52.046;4.800;2023-03-30T16:06:20;9.90;;;1.90;;
69789;SDS011;57064;52.046;4.800;2023-03-30T16:08:47;8.90;;;1.73;;
69789;SDS011;57064;52.046;4.800;2023-03-30T16:11:13;11.10;;;1.67;;
69789;SDS011;57064;52.046;4.800;2023-03-30T16:13:41;10.18;;;2.03;;
69789;SDS011;57064;52.046;4.800;2023-03-30T16:16:10;13.07;;;2.13;;
69789;SDS011;57064;52.046;4.800;2023-03-30T16:18:38;18.80;;;2.55;;
69789;SDS011;57064;52.046;4.800;2023-03-30T16:21:04;14.40;;;2.58;;
69789;SDS011;57064;52.046;4.800;2023-03-30T16:23:31;9.55;;;1.30;;
69789;SDS011;57064;52.046;4.800;2023-03-30T16:25:57;13.13;;;1.60;;
69789;SDS011;57064;52.046;4.800;2023-03-30T16:28:23;9.18;;;1.92;;
69789;SDS011;57064;52.046;4.800;2023-03-30T16:30:51;17.75;;;1.92;;
69789;SDS011;57064;52.046;4.800;2023-03-30T16:33:19;12.98;;;2.15;;
69789;SDS011;57064;52.046;4.800;2023-03-30T16:35:45;10.65;;;2.00;;
69789;SDS011;57064;52.046;4.800;2023-03-30T16:38:12;17.55;;;1.98;;
69789;SDS011;57064;52.046;4.800;2023-03-30T16:40:42;10.25;;;1.73;;
69789;SDS011;57064;52.046;4.800;2023-03-30T16:43:10;12.05;;;2.50;;
69789;SDS011;57064;52.046;4.800;2023-03-30T16:45:37;17.10;;;2.33;;
69789;SDS011;57064;52.046;4.800;2023-03-30T16:48:03;16.58;;;2.28;;
69789;SDS011;57064;52.046;4.800;2023-03-30T16:50:36;17.83;;;2.95;;
69789;SDS011;57064;52.046;4.800;2023-03-30T16:53:04;14.52;;;2.47;;
69789;SDS011;57064;52.046;4.800;2023-03-30T16:55:31;13.07;;;2.53;;
69789;SDS011;57064;52.046;4.800;2023-03-30T16:57:57;14.45;;;2.50;;
69789;SDS011;57064;52.046;4.800;2023-03-30T17:00:28;16.85;;;1.90;;
69789;SDS011;57064;52.046;4.800;2023-03-30T17:02:55;17.98;;;3.40;;
69789;SDS011;57064;52.046;4.800;2023-03-30T17:05:21;11.82;;;2.45;;
69789;SDS011;57064;52.046;4.800;2023-03-30T17:07:49;7.78;;;1.75;;
69789;SDS011;57064;52.046;4.800;2023-03-30T17:10:25;17.48;;;2.15;;
69789;SDS011;57064;52.046;4.800;2023-03-30T17:12:53;19.05;;;3.67;;
69789;SDS011;57064;52.046;4.800;2023-03-30T17:15:20;14.13;;;1.95;;
69789;SDS011;57064;52.046;4.800;2023-03-30T17:17:47;15.23;;;2.55;;
69789;SDS011;57064;52.046;4.800;2023-03-30T17:22:45;13.98;;;2.17;;
69789;SDS011;57064;52.046;4.800;2023-03-30T17:25:12;12.15;;;2.20;;
69789;SDS011;57064;52.046;4.800;2023-03-30T17:27:39;11.43;;;1.83;;
69789;SDS011;57064;52.046;4.800;2023-03-30T17:30:13;10.93;;;2.55;;
69789;SDS011;57064;52.046;4.800;2023-03-30T17:32:40;16.45;;;1.75;;
69789;SDS011;57064;52.046;4.800;2023-03-30T17:35:07;21.30;;;3.50;;
69789;SDS011;57064;52.046;4.800;2023-03-30T17:37:34;12.35;;;2.90;;
69789;SDS011;57064;52.046;4.800;2023-03-30T17:40:01;16.88;;;2.33;;
69789;SDS011;57064;52.046;4.800;2023-03-30T17:42:36;11.00;;;2.50;;
69789;SDS011;57064;52.046;4.800;2023-03-30T17:45:02;11.10;;;2.58;;
69789;SDS011;57064;52.046;4.800;2023-03-30T17:47:29;8.35;;;1.80;;
69789;SDS011;57064;52.046;4.800;2023-03-30T17:49:55;12.55;;;2.08;;
69789;SDS011;57064;52.046;4.800;2023-03-30T17:52:21;18.17;;;2.92;;